createdAt,value
2019-02-18T00:00:51.956Z,62.20
2019-02-18T00:03:21.033Z,61.78
2019-02-18T00:05:50.106Z,62.17
2019-02-18T00:08:19.176Z,61.76
2019-02-18T00:10:48.211Z,64.29
2019-02-18T00:13:20.154Z,63.40
2019-02-18T00:15:49.220Z,64.11
2019-02-18T00:20:54.912Z,64.32
2019-02-18T00:23:25.058Z,64.24
2019-02-18T00:25:54.594Z,64.11
2019-02-18T00:31:02.398Z,64.98
2019-02-18T00:33:37.607Z,66.94
2019-02-18T00:36:07.138Z,67.02
2019-02-18T00:38:37.110Z,64.38
2019-02-18T00:41:06.151Z,64.87
2019-02-18T00:43:47.607Z,64.52
2019-02-18T00:46:17.158Z,63.81
2019-02-18T00:48:50.304Z,62.36
2019-02-18T00:51:19.350Z,62.85
2019-02-18T00:53:50.427Z,62.47
2019-02-18T00:56:19.571Z,63.22
2019-02-18T00:58:57.222Z,62.74
2019-02-18T01:01:28.276Z,62.85
2019-02-18T01:03:57.330Z,62.98
2019-02-18T01:06:30.395Z,63.42
2019-02-18T01:11:38.253Z,64.75
2019-02-18T01:14:07.446Z,64.83
2019-02-18T01:16:51.286Z,65.24
2019-02-18T01:19:20.400Z,64.59
2019-02-18T01:21:56.574Z,63.82
2019-02-18T01:24:26.135Z,62.80
2019-02-18T01:26:57.179Z,63.89
2019-02-18T01:29:28.191Z,64.35
2019-02-18T01:32:03.536Z,64.11
2019-02-18T01:34:34.591Z,63.61
2019-02-18T01:37:09.843Z,63.45
2019-02-18T01:39:39.828Z,63.73
2019-02-18T01:42:08.873Z,64.71
2019-02-18T01:44:40.585Z,65.42
2019-02-18T01:47:09.685Z,66.10
2019-02-18T01:52:15.419Z,66.71
2019-02-18T01:54:44.507Z,67.79
2019-02-18T01:57:13.913Z,69.66
2019-02-18T01:59:44.094Z,70.77
2019-02-18T02:02:13.151Z,70.29
2019-02-18T02:07:22.061Z,69.90
2019-02-18T02:09:59.109Z,70.60
2019-02-18T02:12:30.158Z,70.49
2019-02-18T02:14:59.213Z,73.77
2019-02-18T02:17:29.294Z,75.31
2019-02-18T02:20:02.669Z,75.96
2019-02-18T02:22:31.735Z,78.10
2019-02-18T02:25:00.800Z,75.87
2019-02-18T02:27:31.885Z,72.39
2019-02-18T02:30:01.449Z,75.42
2019-02-18T02:35:07.265Z,79.22
2019-02-18T02:37:36.333Z,74.89
2019-02-18T02:40:05.385Z,79.49
2019-02-18T02:45:17.543Z,76.02
2019-02-18T02:47:46.588Z,80.04
2019-02-18T02:50:16.130Z,79.66
2019-02-18T02:52:45.238Z,78.17
2019-02-18T02:55:14.312Z,76.97
2019-02-18T03:00:23.007Z,81.59
2019-02-18T03:03:01.071Z,78.59
2019-02-18T03:05:38.566Z,79.42
2019-02-18T03:08:19.931Z,78.80
2019-02-18T03:14:08.536Z,81.21
2019-02-18T03:16:40.935Z,81.33
2019-02-18T03:19:09.991Z,82.13
2019-02-18T03:21:40.354Z,80.54
2019-02-18T03:24:09.435Z,81.01
2019-02-18T03:26:39.419Z,80.00
2019-02-18T03:32:14.796Z,81.92
2019-02-18T03:34:44.584Z,84.47
2019-02-18T03:37:24.154Z,82.62
2019-02-18T03:39:54.161Z,82.30
2019-02-18T03:45:01.497Z,84.43
2019-02-18T03:50:10.411Z,83.46
2019-02-18T03:52:40.434Z,82.90
2019-02-18T03:55:10.254Z,80.69
2019-02-18T03:57:39.359Z,79.65
2019-02-18T04:00:09.368Z,82.70
2019-02-18T04:02:38.449Z,84.12
2019-02-18T04:05:08.371Z,83.58
2019-02-18T04:10:23.112Z,83.69
2019-02-18T04:12:52.374Z,83.09
2019-02-18T04:15:21.507Z,81.39
2019-02-18T04:17:50.554Z,81.19
2019-02-18T04:20:21.165Z,78.69
2019-02-18T04:22:50.279Z,79.91
2019-02-18T04:25:19.330Z,80.60
2019-02-18T04:27:52.123Z,80.33
2019-02-18T04:30:21.218Z,81.71
2019-02-18T04:32:53.606Z,82.56
2019-02-18T04:35:26.037Z,82.42
2019-02-18T04:37:55.103Z,81.71
2019-02-18T04:43:01.310Z,83.90
2019-02-18T04:48:11.070Z,84.22
2019-02-18T04:50:45.604Z,84.41
2019-02-18T04:53:15.865Z,80.90
2019-02-18T04:55:45.958Z,83.26
2019-02-18T04:58:15.969Z,83.06
2019-02-18T05:00:45.039Z,82.96
2019-02-18T05:03:22.650Z,84.41
2019-02-18T05:05:52.213Z,87.19
2019-02-18T05:08:21.290Z,87.81
2019-02-18T05:10:50.369Z,88.55
2019-02-18T05:13:19.951Z,88.70
2019-02-18T05:15:54.175Z,85.12
2019-02-18T05:18:23.213Z,85.91
2019-02-18T05:20:52.264Z,88.22
2019-02-18T05:23:22.311Z,87.82
2019-02-18T05:25:54.573Z,83.48
2019-02-18T05:28:24.712Z,85.33
2019-02-18T05:30:53.795Z,86.39
2019-02-18T05:33:22.991Z,86.21
2019-02-18T05:35:52.065Z,85.02
2019-02-18T05:38:23.515Z,83.55
2019-02-18T05:40:52.608Z,84.11
2019-02-18T05:43:21.669Z,86.56
2019-02-18T05:45:51.221Z,87.87
2019-02-18T05:48:22.865Z,88.04
2019-02-18T05:50:55.652Z,87.64
2019-02-18T05:53:26.756Z,87.92
2019-02-18T05:55:55.827Z,86.87
2019-02-18T05:58:30.377Z,86.75
2019-02-18T06:00:59.413Z,85.38
2019-02-18T06:03:28.463Z,85.52
2019-02-18T06:06:06.819Z,85.20
2019-02-18T06:08:35.891Z,85.28
2019-02-18T06:11:07.462Z,86.85
2019-02-18T06:16:18.694Z,85.47
2019-02-18T06:21:28.072Z,83.43
2019-02-18T06:24:01.815Z,84.44
2019-02-18T06:26:30.888Z,85.69
2019-02-18T06:31:46.799Z,85.44
2019-02-18T06:34:15.880Z,86.26
2019-02-18T06:36:45.770Z,85.87
2019-02-18T06:39:14.895Z,82.70
2019-02-18T06:41:50.060Z,83.71
2019-02-18T06:44:19.748Z,83.38
2019-02-18T06:49:24.039Z,84.06
2019-02-18T06:51:53.163Z,82.22
2019-02-18T06:54:22.202Z,81.70
2019-02-18T06:56:53.570Z,81.15
2019-02-18T06:59:23.423Z,80.72
2019-02-18T07:01:53.927Z,82.14
2019-02-18T07:04:23.780Z,80.28
2019-02-18T07:06:59.734Z,78.95
2019-02-18T07:12:10.281Z,82.00
2019-02-18T07:14:42.690Z,81.76
2019-02-18T07:17:12.232Z,80.78
2019-02-18T07:19:44.434Z,79.54
2019-02-18T07:22:14.443Z,78.18
2019-02-18T07:24:52.582Z,76.62
2019-02-18T07:27:22.277Z,76.18
2019-02-18T07:29:53.772Z,75.70
2019-02-18T07:35:01.978Z,75.05
2019-02-18T07:37:34.953Z,75.13
2019-02-18T07:40:08.096Z,73.87
2019-02-18T07:45:13.037Z,71.95
2019-02-18T07:47:42.032Z,71.33
2019-02-18T07:52:48.244Z,69.68
2019-02-18T07:55:18.151Z,68.70
2019-02-18T07:57:47.220Z,67.42
2019-02-18T08:00:16.259Z,66.63
2019-02-18T08:02:46.808Z,69.21
2019-02-18T08:05:15.891Z,68.68
2019-02-18T08:07:49.707Z,68.77
2019-02-18T08:10:30.937Z,64.55
2019-02-18T08:13:00.235Z,63.08
2019-02-18T08:15:31.507Z,62.23
2019-02-18T08:18:02.579Z,65.44
2019-02-18T08:20:31.643Z,66.48
2019-02-18T08:23:00.726Z,65.73
2019-02-18T08:25:34.384Z,66.51
2019-02-18T08:28:04.893Z,66.28
2019-02-18T08:30:33.946Z,63.16
2019-02-18T08:33:03.044Z,62.65
2019-02-18T08:35:33.060Z,62.08
2019-02-18T08:38:02.158Z,60.32
2019-02-18T08:40:31.693Z,60.70
2019-02-18T08:45:37.447Z,60.49
2019-02-18T08:48:07.840Z,58.18
2019-02-18T08:50:36.916Z,56.61
2019-02-18T08:53:16.929Z,55.33
2019-02-18T08:55:45.968Z,56.65
2019-02-18T09:01:01.985Z,58.58
2019-02-18T09:05:59.718Z,57.31
2019-02-18T09:11:04.563Z,54.73
2019-02-18T09:13:34.955Z,49.60
2019-02-18T09:16:08.011Z,46.49
2019-02-18T09:18:37.056Z,41.97
2019-02-18T09:21:28.637Z,34.38
2019-02-18T09:23:57.720Z,35.05
2019-02-18T09:26:27.554Z,32.76
2019-02-18T09:31:37.395Z,27.13
2019-02-18T09:34:06.472Z,24.63
2019-02-18T09:36:35.529Z,22.52
2019-02-18T09:39:05.224Z,24.42
2019-02-18T09:41:34.350Z,28.20
2019-02-18T09:44:03.388Z,19.75
2019-02-18T09:49:08.216Z,25.30
2019-02-18T09:51:37.270Z,17.24
2019-02-18T09:54:06.451Z,20.63
2019-02-18T09:56:37.003Z,22.85
2019-02-18T09:59:08.172Z,23.67
2019-02-18T10:01:37.271Z,21.35
2019-02-18T10:06:43.118Z,20.99
2019-02-18T10:11:48.600Z,17.26
2019-02-18T10:14:18.648Z,18.33
2019-02-18T10:16:47.698Z,15.10
2019-02-18T10:19:17.426Z,19.58
2019-02-18T10:21:46.489Z,17.68
2019-02-18T10:24:15.563Z,18.27
2019-02-18T10:26:44.723Z,18.24
2019-02-18T10:29:14.788Z,15.97
2019-02-18T10:31:44.798Z,16.21
2019-02-18T10:34:13.913Z,16.38
2019-02-18T10:36:42.966Z,16.24
2019-02-18T10:39:12.015Z,17.95
2019-02-18T10:41:41.072Z,19.33
2019-02-18T10:44:11.459Z,16.12
2019-02-18T10:46:40.760Z,15.33
2019-02-18T10:49:19.311Z,13.90
2019-02-18T10:54:14.524Z,13.56
2019-02-18T10:59:22.356Z,12.77
2019-02-18T11:01:51.433Z,14.36
2019-02-18T11:04:20.936Z,13.98
2019-02-18T11:06:51.041Z,12.77
2019-02-18T11:09:20.109Z,12.61
2019-02-18T11:11:49.228Z,13.46
2019-02-18T11:14:18.232Z,15.59
2019-02-18T11:16:47.708Z,13.70
2019-02-18T11:19:17.682Z,15.52
2019-02-18T11:24:22.291Z,15.09
2019-02-18T11:26:51.429Z,18.85
2019-02-18T11:29:21.558Z,18.87
2019-02-18T11:31:50.616Z,16.50
2019-02-18T11:34:20.652Z,13.85
2019-02-18T11:36:50.247Z,12.82
2019-02-18T11:39:20.284Z,12.81
2019-02-18T11:41:49.334Z,13.70
2019-02-18T11:44:18.381Z,13.22
2019-02-18T11:46:48.339Z,12.83
2019-02-18T11:49:18.001Z,13.25
2019-02-18T11:51:47.094Z,13.09
2019-02-18T11:54:16.172Z,12.88
2019-02-18T11:59:24.213Z,12.08
2019-02-18T12:01:50.208Z,12.88
2019-02-18T12:04:26.639Z,12.72
2019-02-18T12:06:56.919Z,13.05
2019-02-18T12:12:01.847Z,12.46
2019-02-18T12:14:30.955Z,12.24
2019-02-18T12:17:00.016Z,13.26
2019-02-18T12:19:30.187Z,13.10
2019-02-18T12:21:59.674Z,13.18
2019-02-18T12:24:28.747Z,13.04
2019-02-18T12:29:45.778Z,12.41
2019-02-18T12:32:14.831Z,12.44
2019-02-18T12:34:44.209Z,12.83
2019-02-18T12:37:14.186Z,12.61
2019-02-18T12:39:43.312Z,12.64
2019-02-18T12:42:13.039Z,12.89
2019-02-18T12:44:42.156Z,12.57
2019-02-18T12:47:11.876Z,13.05
2019-02-18T12:49:40.939Z,12.76
2019-02-18T12:52:10.002Z,13.09
2019-02-18T12:54:41.462Z,13.27
2019-02-18T12:57:10.564Z,12.50
2019-02-18T12:59:40.627Z,12.51
2019-02-18T13:02:10.387Z,12.74
2019-02-18T13:04:39.484Z,13.01
2019-02-18T13:07:08.549Z,12.66
2019-02-18T13:09:37.614Z,12.65
2019-02-18T13:12:07.623Z,13.27
2019-02-18T13:14:39.452Z,13.41
2019-02-18T13:17:08.567Z,12.90
2019-02-18T13:22:13.496Z,13.20
2019-02-18T13:24:42.567Z,13.29
2019-02-18T13:27:11.974Z,12.25
2019-02-18T13:29:41.067Z,12.14
2019-02-18T13:32:10.116Z,12.61
2019-02-18T13:34:39.792Z,13.03
2019-02-18T13:37:08.889Z,12.72
2019-02-18T13:39:37.989Z,13.08
2019-02-18T13:42:08.022Z,12.82
2019-02-18T13:44:37.071Z,13.48
2019-02-18T13:49:42.148Z,12.14
2019-02-18T13:52:12.039Z,12.20
2019-02-18T13:54:41.095Z,12.18
2019-02-18T13:57:10.409Z,13.55
2019-02-18T13:59:39.757Z,13.66
2019-02-18T14:02:09.801Z,13.48
2019-02-18T14:04:38.879Z,12.87
2019-02-18T14:07:11.810Z,13.47
2019-02-18T14:09:40.883Z,13.65
2019-02-18T14:12:15.950Z,15.58
2019-02-18T14:14:39.349Z,14.58
2019-02-18T14:17:13.687Z,14.19
2019-02-18T14:19:43.240Z,14.55
2019-02-18T14:22:13.332Z,16.31
2019-02-18T14:24:42.381Z,16.49
2019-02-18T14:29:46.717Z,14.27
2019-02-18T14:32:17.360Z,16.22
2019-02-18T14:34:46.448Z,15.96
2019-02-18T14:39:52.771Z,16.65
2019-02-18T14:42:24.531Z,15.94
2019-02-18T14:44:51.900Z,16.97
2019-02-18T14:47:20.046Z,16.57
2019-02-18T14:49:49.110Z,16.07
2019-02-18T14:52:18.887Z,16.88
2019-02-18T14:54:52.207Z,20.22
2019-02-18T14:57:25.904Z,19.53
2019-02-18T15:00:05.785Z,19.68
2019-02-18T15:02:35.751Z,20.56
2019-02-18T15:05:14.087Z,20.10
2019-02-18T15:07:43.229Z,21.61
2019-02-18T15:10:14.055Z,22.97
2019-02-18T15:12:43.119Z,21.74
2019-02-18T15:15:12.158Z,22.08
2019-02-18T15:17:42.685Z,25.14
2019-02-18T15:20:11.784Z,26.05
2019-02-18T15:22:40.863Z,26.53
2019-02-18T15:25:11.486Z,26.94
2019-02-18T15:27:40.600Z,25.95
2019-02-18T15:30:13.071Z,28.29
2019-02-18T15:32:42.126Z,27.72
2019-02-18T15:35:11.179Z,27.24
2019-02-18T15:37:40.884Z,27.23
2019-02-18T15:42:56.605Z,26.27
2019-02-18T15:45:25.718Z,30.35
2019-02-18T15:48:01.519Z,31.86
2019-02-18T15:50:25.053Z,34.23
2019-02-18T15:52:54.134Z,32.83
2019-02-18T15:55:24.087Z,36.64
2019-02-18T15:57:54.045Z,37.76
2019-02-18T16:00:23.122Z,34.55
2019-02-18T16:02:52.174Z,36.26
2019-02-18T16:05:21.251Z,38.44
2019-02-18T16:10:26.572Z,33.88
2019-02-18T16:15:31.880Z,37.23
2019-02-18T16:18:00.959Z,37.65
2019-02-18T16:20:30.948Z,37.00
2019-02-18T16:23:00.849Z,41.34
2019-02-18T16:25:30.938Z,42.22
2019-02-18T16:28:05.746Z,41.87
2019-02-18T16:30:36.706Z,38.35
2019-02-18T16:33:06.742Z,41.83
2019-02-18T16:35:36.385Z,41.02
2019-02-18T16:38:05.473Z,42.38
2019-02-18T16:40:34.520Z,41.86
2019-02-18T16:45:39.529Z,41.46
2019-02-18T16:48:08.584Z,45.57
2019-02-18T16:50:38.657Z,46.04
2019-02-18T16:53:07.712Z,48.08
2019-02-18T16:55:37.387Z,44.68
2019-02-18T16:58:06.699Z,48.44
2019-02-18T17:00:35.743Z,48.88
2019-02-18T17:03:05.069Z,48.59
2019-02-18T17:08:18.117Z,48.02
2019-02-18T17:10:47.833Z,51.27
2019-02-18T17:13:16.886Z,53.80
2019-02-18T17:15:46.957Z,49.62
2019-02-18T17:18:17.959Z,52.02
2019-02-18T17:20:51.011Z,57.82
2019-02-18T17:23:23.910Z,57.67
2019-02-18T17:25:53.874Z,59.01
2019-02-18T17:28:24.722Z,60.83
2019-02-18T17:30:53.871Z,54.04
2019-02-18T17:33:23.984Z,63.32
2019-02-18T17:35:53.975Z,61.35
2019-02-18T17:40:59.469Z,60.58
2019-02-18T17:46:04.244Z,61.74
2019-02-18T17:48:33.816Z,64.34
2019-02-18T17:51:03.859Z,60.32
2019-02-18T17:53:32.895Z,60.32
2019-02-18T17:56:01.943Z,65.00
2019-02-18T17:58:33.355Z,64.75
2019-02-18T18:01:03.000Z,65.24
2019-02-18T18:03:35.285Z,57.71
2019-02-18T18:06:08.170Z,62.55
2019-02-18T18:08:38.186Z,58.11
2019-02-18T18:11:07.461Z,66.32
2019-02-18T18:13:37.203Z,66.71
2019-02-18T18:16:06.332Z,70.32
2019-02-18T18:18:39.525Z,64.24
2019-02-18T18:21:09.405Z,70.37
2019-02-18T18:26:14.726Z,68.16
2019-02-18T18:31:19.563Z,63.77
2019-02-18T18:33:55.487Z,64.62
2019-02-18T18:36:27.870Z,69.78
2019-02-18T18:38:56.916Z,66.74
2019-02-18T18:41:26.879Z,71.62
2019-02-18T18:43:55.928Z,73.61
2019-02-18T18:46:29.474Z,71.07
2019-02-18T18:48:58.532Z,74.35
2019-02-18T18:54:03.275Z,70.63
2019-02-18T18:56:32.351Z,69.83
2019-02-18T18:59:01.886Z,74.61
2019-02-18T19:01:34.048Z,73.95
2019-02-18T19:04:05.479Z,69.42
2019-02-18T19:06:36.227Z,67.38
2019-02-18T19:09:05.302Z,71.86
2019-02-18T19:11:39.446Z,71.09
2019-02-18T19:14:12.289Z,74.71
2019-02-18T19:16:41.759Z,74.52
2019-02-18T19:19:19.796Z,73.80
2019-02-18T19:21:48.868Z,77.55
2019-02-18T19:24:17.901Z,78.66
2019-02-18T19:26:47.904Z,77.46
2019-02-18T19:29:18.886Z,72.56
2019-02-18T19:31:48.425Z,73.65
2019-02-18T19:34:18.522Z,76.13
2019-02-18T19:36:47.562Z,77.44
2019-02-18T19:39:16.826Z,73.54
2019-02-18T19:44:22.863Z,71.28
2019-02-18T19:46:53.925Z,74.68
2019-02-18T19:49:23.015Z,67.85
2019-02-18T19:54:28.985Z,71.79
2019-02-18T19:56:58.038Z,73.31
2019-02-18T19:59:32.273Z,72.96
2019-02-18T20:02:05.007Z,70.86
2019-02-18T20:07:09.906Z,73.72
2019-02-18T20:14:50.255Z,78.37
2019-02-18T20:17:19.833Z,79.67
2019-02-18T20:19:48.999Z,80.35
2019-02-18T20:22:25.446Z,79.53
2019-02-18T20:25:08.147Z,81.67
2019-02-18T20:27:37.207Z,82.29
2019-02-18T20:30:09.821Z,82.94
2019-02-18T20:32:38.895Z,82.74
2019-02-18T20:35:07.962Z,81.03
2019-02-18T20:37:37.546Z,82.00
2019-02-18T20:40:10.523Z,82.24
2019-02-18T20:42:39.578Z,81.67
2019-02-18T20:45:12.294Z,80.90
2019-02-18T20:47:41.347Z,79.87
2019-02-18T20:50:14.768Z,80.97
2019-02-18T20:52:43.829Z,77.20
2019-02-18T20:55:14.568Z,81.57
2019-02-18T20:57:43.645Z,76.51
2019-02-18T21:00:12.675Z,82.92
2019-02-18T21:02:42.312Z,84.88
2019-02-18T21:07:50.296Z,82.26
2019-02-18T21:10:24.163Z,84.37
2019-02-18T21:12:53.032Z,84.50
2019-02-18T21:15:25.962Z,84.82
2019-02-18T21:17:55.024Z,82.77
2019-02-18T21:20:27.207Z,84.72
2019-02-18T21:23:01.634Z,82.73
2019-02-18T21:25:30.719Z,81.86
2019-02-18T21:27:59.758Z,80.81
2019-02-18T21:30:30.790Z,81.74
2019-02-18T21:33:03.158Z,80.89
2019-02-18T21:38:09.383Z,77.91
2019-02-18T21:43:17.347Z,81.41
2019-02-18T21:48:35.242Z,81.26
2019-02-18T21:51:04.472Z,80.87
2019-02-18T21:53:35.146Z,84.55
2019-02-18T21:56:05.438Z,82.99
2019-02-18T22:00:49.743Z,83.54
2019-02-18T22:03:19.366Z,81.85
2019-02-18T22:08:26.201Z,84.05
2019-02-18T22:10:56.692Z,85.49
2019-02-18T22:16:01.581Z,83.89
2019-02-18T22:18:31.181Z,84.42
2019-02-18T22:21:01.840Z,82.84
2019-02-18T22:23:31.606Z,82.56
2019-02-18T22:26:00.769Z,83.00
2019-02-18T22:28:31.866Z,82.07
2019-02-18T22:31:01.161Z,80.87
2019-02-18T22:33:33.073Z,79.84
2019-02-18T22:36:02.183Z,79.42
2019-02-18T22:38:42.705Z,79.06
2019-02-18T22:41:12.781Z,79.12
2019-02-18T22:43:41.966Z,79.29
2019-02-18T22:46:11.134Z,78.73
2019-02-18T22:48:40.243Z,77.02
2019-02-18T22:51:09.313Z,76.18
2019-02-18T22:53:39.018Z,76.20
2019-02-18T22:56:08.119Z,76.67
2019-02-18T22:58:39.339Z,75.69
2019-02-18T23:01:08.773Z,74.47
2019-02-18T23:03:46.479Z,73.69
2019-02-18T23:08:55.886Z,70.77
2019-02-18T23:11:25.012Z,71.95
2019-02-18T23:16:31.179Z,76.41
2019-02-18T23:19:01.156Z,77.71
2019-02-18T23:24:06.936Z,78.20
2019-02-18T23:26:38.898Z,77.70
2019-02-18T23:29:08.233Z,76.03
2019-02-18T23:31:37.453Z,74.60
2019-02-18T23:34:06.591Z,74.65
2019-02-18T23:36:37.640Z,73.92
2019-02-18T23:39:09.860Z,73.69
2019-02-18T23:41:40.949Z,73.91
2019-02-18T23:44:10.257Z,74.13
2019-02-18T23:46:39.306Z,74.26
2019-02-18T23:51:44.597Z,74.32
2019-02-18T23:54:13.655Z,74.47
2019-02-18T23:56:57.595Z,73.63
